createdAt,value
2018-05-04T22:43:44.391Z,62.80
2018-05-04T22:44:15.779Z,63.40
2018-05-04T22:44:47.175Z,63.50
2018-05-04T22:45:19.328Z,63.00
2018-05-04T22:45:50.776Z,63.00
2018-05-04T22:46:22.159Z,63.10
2018-05-04T22:46:53.555Z,63.10
2018-05-04T22:47:25.670Z,62.90
2018-05-04T22:47:57.059Z,62.90
2018-05-04T22:48:28.447Z,62.90
2018-05-04T22:48:59.859Z,63.10
2018-05-04T22:49:31.255Z,63.30
2018-05-04T22:50:02.683Z,63.60
2018-05-04T22:50:34.079Z,63.60
2018-05-04T22:51:05.471Z,63.60
2018-05-04T22:51:36.854Z,63.60
2018-05-04T22:52:08.244Z,63.70
2018-05-04T22:52:39.635Z,63.80
2018-05-04T22:53:11.027Z,64.00
2018-05-04T22:53:42.412Z,64.10
2018-05-04T22:54:13.823Z,63.90
2018-05-04T22:54:45.211Z,63.70
2018-05-04T22:55:16.604Z,63.60
2018-05-04T22:55:47.983Z,63.50
2018-05-04T22:56:19.395Z,63.40
2018-05-04T22:56:50.815Z,63.60
2018-05-04T22:57:22.207Z,63.50
2018-05-04T22:57:53.586Z,63.50
2018-05-04T22:58:25.003Z,63.70
2018-05-04T22:58:56.400Z,63.80
2018-05-04T22:59:27.811Z,64.00
2018-05-04T22:59:59.199Z,64.00
2018-05-04T23:00:30.618Z,64.10
2018-05-04T23:01:02.019Z,64.20
2018-05-04T23:01:33.427Z,64.40
2018-05-04T23:02:04.844Z,64.40
2018-05-04T23:02:36.222Z,64.30
2018-05-04T23:03:07.642Z,63.90
2018-05-04T23:03:39.058Z,64.30
2018-05-04T23:04:11.924Z,64.10
2018-05-04T23:04:47.455Z,64.10
2018-05-04T23:05:19.171Z,64.30
2018-05-04T23:05:50.579Z,64.40
2018-05-04T23:06:22.739Z,64.40
2018-05-04T23:06:54.899Z,64.10
2018-05-04T23:07:27.031Z,63.80
2018-05-04T23:07:58.426Z,63.70
2018-05-04T23:08:29.807Z,63.60
2018-05-04T23:09:01.227Z,63.50
2018-05-04T23:09:32.631Z,63.70
2018-05-04T23:10:04.834Z,63.90
2018-05-04T23:10:36.259Z,63.90
2018-05-04T23:11:07.638Z,63.70
2018-05-04T23:11:39.051Z,63.50
2018-05-04T23:12:10.435Z,63.60
2018-05-04T23:12:42.589Z,63.80
2018-05-04T23:13:13.979Z,63.80
2018-05-04T23:13:45.363Z,63.70
2018-05-04T23:14:17.508Z,63.30
2018-05-04T23:14:48.899Z,63.30
2018-05-04T23:15:20.319Z,63.20
2018-05-04T23:15:51.703Z,63.30
2018-05-04T23:16:23.091Z,63.70
2018-05-04T23:16:54.528Z,63.80
2018-05-04T23:17:25.920Z,63.60
2018-05-04T23:17:57.315Z,63.50
2018-05-04T23:18:29.470Z,63.60
2018-05-04T23:19:00.855Z,63.60
2018-05-04T23:19:32.276Z,63.50
2018-05-04T23:20:04.418Z,63.40
2018-05-04T23:20:35.831Z,63.30
2018-05-04T23:21:07.206Z,63.20
2018-05-04T23:21:38.592Z,63.20
2018-05-04T23:22:10.023Z,63.20
2018-05-04T23:22:41.443Z,63.40
2018-05-04T23:23:12.842Z,63.50
2018-05-04T23:23:44.223Z,63.50
2018-05-04T23:24:16.346Z,63.80
2018-05-04T23:24:47.731Z,63.80
2018-05-04T23:25:19.863Z,64.00
2018-05-04T23:25:51.277Z,64.00
2018-05-04T23:26:22.667Z,64.10
2018-05-04T23:26:54.795Z,64.40
2018-05-04T23:27:26.179Z,64.40
2018-05-04T23:27:57.590Z,64.50
2018-05-04T23:28:29.007Z,64.40
2018-05-04T23:29:00.391Z,64.10
2018-05-04T23:29:31.799Z,64.10
2018-05-04T23:30:03.986Z,64.30
2018-05-04T23:30:36.135Z,64.30
2018-05-04T23:31:08.334Z,63.90
2018-05-04T23:31:39.719Z,63.90
2018-05-04T23:32:11.099Z,63.80
2018-05-04T23:32:42.527Z,63.90
2018-05-04T23:33:14.682Z,64.30
2018-05-04T23:33:46.091Z,64.20
2018-05-04T23:34:17.480Z,64.40
2018-05-04T23:34:48.907Z,64.40
2018-05-04T23:35:21.031Z,64.20
2018-05-04T23:35:52.419Z,64.00
2018-05-04T23:36:24.599Z,64.30
2018-05-04T23:36:55.984Z,64.20
2018-05-04T23:37:27.370Z,64.40
2018-05-04T23:37:58.755Z,64.60
2018-05-04T23:38:30.143Z,64.80
2018-05-04T23:39:02.351Z,65.00
2018-05-04T23:39:33.774Z,65.00
2018-05-04T23:40:05.159Z,65.10
2018-05-04T23:40:36.547Z,65.10
2018-05-04T23:41:07.932Z,65.00
2018-05-04T23:41:39.402Z,64.90
2018-05-04T23:42:10.766Z,64.90
2018-05-04T23:42:42.151Z,64.90
2018-05-04T23:43:13.551Z,65.00
2018-05-04T23:43:44.971Z,65.00
2018-05-04T23:44:17.091Z,65.50
2018-05-04T23:44:48.480Z,65.00
2018-05-04T23:45:19.867Z,65.00
2018-05-04T23:45:51.260Z,65.10
2018-05-04T23:46:22.671Z,65.20
2018-05-04T23:46:54.084Z,65.20
2018-05-04T23:47:25.464Z,65.30
2018-05-04T23:47:56.841Z,65.20
2018-05-04T23:48:28.219Z,65.20
2018-05-04T23:48:59.600Z,65.20
2018-05-04T23:49:31.735Z,65.30
2018-05-04T23:50:03.143Z,65.30
2018-05-04T23:50:34.532Z,65.30
2018-05-04T23:51:06.657Z,65.20
2018-05-04T23:51:38.043Z,65.20
2018-05-04T23:52:10.196Z,65.40
2018-05-04T23:52:42.324Z,65.30
2018-05-04T23:53:15.200Z,65.40
2018-05-04T23:53:46.587Z,65.50
2018-05-04T23:54:17.975Z,65.50
2018-05-04T23:54:49.399Z,65.50
2018-05-04T23:55:20.783Z,65.60
2018-05-04T23:55:52.912Z,65.70
2018-05-04T23:56:24.327Z,65.60
2018-05-04T23:56:55.747Z,65.50
2018-05-04T23:57:27.896Z,65.50
2018-05-04T23:58:00.062Z,65.40
2018-05-04T23:58:32.222Z,65.50
2018-05-04T23:59:04.351Z,65.70
2018-05-04T23:59:35.727Z,65.60
